createdAt,value
2022-12-01T00:01:29.899Z,97121.47
2022-12-01T00:03:57.334Z,97109.56
2022-12-01T00:06:24.508Z,97105.16
2022-12-01T00:09:15.206Z,97107.25
2022-12-01T00:11:45.443Z,97104.19
2022-12-01T00:14:12.875Z,97099.47
2022-12-01T00:16:41.279Z,97112.44
2022-12-01T00:19:08.930Z,97108.13
2022-12-01T00:21:36.369Z,97105.94
2022-12-01T00:24:03.767Z,97108.69
2022-12-01T00:26:30.965Z,97109.69
2022-12-01T00:29:00.072Z,97107.97
2022-12-01T00:31:28.274Z,97103.13
2022-12-01T00:33:56.163Z,97111.59
2022-12-01T00:36:23.907Z,97108.09
2022-12-01T00:38:56.835Z,97121.19
2022-12-01T00:41:25.771Z,97115.00
2022-12-01T00:43:53.419Z,97110.31
2022-12-01T00:46:20.746Z,97114.63
2022-12-01T00:48:48.660Z,97114.00
2022-12-01T00:51:15.979Z,97109.34
2022-12-01T00:53:43.316Z,97111.41
2022-12-01T00:56:10.716Z,97113.34
2022-12-01T00:58:37.940Z,97103.25
2022-12-01T01:01:05.511Z,97105.00
2022-12-01T01:03:34.246Z,97106.50
2022-12-01T01:06:12.638Z,97109.16
2022-12-01T01:08:41.305Z,97105.00
2022-12-01T01:11:10.054Z,97100.47
2022-12-01T01:13:38.160Z,97105.00
2022-12-01T01:16:17.207Z,97101.38
2022-12-01T01:18:45.116Z,97106.84
2022-12-01T01:21:18.297Z,97106.03
2022-12-01T01:23:45.744Z,97109.94
2022-12-01T01:26:21.203Z,97107.19
2022-12-01T01:28:49.924Z,97111.09
2022-12-01T01:31:23.088Z,97122.66
2022-12-01T01:33:51.004Z,97130.63
2022-12-01T01:36:19.580Z,97120.44
2022-12-01T01:38:47.722Z,97122.41
2022-12-01T01:41:15.259Z,97119.88
2022-12-01T01:43:47.082Z,97110.47
2022-12-01T01:46:20.423Z,97113.59
2022-12-01T01:49:01.770Z,97111.28
2022-12-01T01:51:52.952Z,97110.41
2022-12-01T01:54:28.300Z,97106.09
2022-12-01T01:57:00.366Z,97109.97
2022-12-01T01:59:36.212Z,97109.16
2022-12-01T02:02:07.625Z,97115.13
2022-12-01T02:04:42.451Z,97108.25
2022-12-01T02:07:12.339Z,97107.34
2022-12-01T02:09:39.619Z,97109.38
2022-12-01T02:12:34.507Z,97107.38
2022-12-01T02:15:18.935Z,97102.28
2022-12-01T02:18:03.693Z,97100.97
2022-12-01T02:21:11.032Z,97096.56
2022-12-01T02:24:24.610Z,97099.44
2022-12-01T02:27:19.877Z,97102.44
2022-12-01T02:30:18.420Z,97094.41
2022-12-01T02:33:15.689Z,97092.72
2022-12-01T02:35:54.826Z,97099.25
2022-12-01T02:38:38.910Z,97108.66
2022-12-01T02:41:25.790Z,97103.16
2022-12-01T02:44:25.763Z,97106.16
2022-12-01T02:47:03.951Z,97104.94
2022-12-01T02:49:43.238Z,97102.56
2022-12-01T02:52:14.096Z,97106.56
2022-12-01T02:54:45.993Z,97106.47
2022-12-01T02:57:15.379Z,97106.00
2022-12-01T02:59:53.506Z,97094.56
2022-12-01T03:02:43.807Z,97095.47
2022-12-01T03:05:34.061Z,97108.06
2022-12-01T03:08:05.860Z,97099.03
2022-12-01T03:10:58.005Z,97100.78
2022-12-01T03:13:52.953Z,97094.81
2022-12-01T03:16:53.394Z,97110.13
2022-12-01T03:20:14.923Z,97099.97
2022-12-01T03:22:55.857Z,97097.88
2022-12-01T03:25:26.578Z,97091.44
2022-12-01T03:28:20.161Z,97088.69
2022-12-01T03:30:46.923Z,97092.50
2022-12-01T03:33:24.165Z,97098.31
2022-12-01T03:36:02.187Z,97100.13
2022-12-01T03:38:32.110Z,97101.88
2022-12-01T03:41:11.009Z,97093.16
2022-12-01T03:43:44.394Z,97102.38
2022-12-01T03:46:47.567Z,97101.63
2022-12-01T03:49:18.641Z,97096.66
2022-12-01T03:52:00.803Z,97092.72
2022-12-01T03:55:04.705Z,97102.06
2022-12-01T03:57:55.862Z,97099.16
2022-12-01T04:00:24.171Z,97103.38
2022-12-01T04:03:02.351Z,97102.72
2022-12-01T04:05:30.892Z,97095.63
2022-12-01T04:07:58.676Z,97096.94
2022-12-01T04:10:26.047Z,97103.00
2022-12-01T04:12:59.147Z,97108.66
2022-12-01T04:15:27.759Z,97109.81
2022-12-01T04:17:55.086Z,97110.22
2022-12-01T04:20:22.958Z,97109.31
2022-12-01T04:22:50.323Z,97111.69
2022-12-01T04:25:17.614Z,97107.47
2022-12-01T04:27:44.876Z,97106.13
2022-12-01T04:30:12.925Z,97108.78
2022-12-01T04:32:42.906Z,97109.91
2022-12-01T04:35:12.914Z,97107.53
2022-12-01T04:37:41.266Z,97108.78
2022-12-01T04:40:09.633Z,97099.47
2022-12-01T04:42:36.899Z,97104.56
2022-12-01T04:45:04.782Z,97100.53
2022-12-01T04:47:32.133Z,97100.44
2022-12-01T04:49:59.405Z,97102.56
2022-12-01T04:52:30.652Z,97098.13
2022-12-01T04:55:00.752Z,97097.75
2022-12-01T04:57:27.918Z,97095.31
2022-12-01T04:59:55.202Z,97111.09
2022-12-01T05:02:22.503Z,97110.13
2022-12-01T05:04:49.812Z,97106.41
2022-12-01T05:07:18.244Z,97110.78
2022-12-01T05:09:45.456Z,97111.59
2022-12-01T05:12:12.734Z,97110.44
2022-12-01T05:14:40.036Z,97118.28
2022-12-01T05:17:07.246Z,97114.41
2022-12-01T05:19:52.936Z,97110.53
2022-12-01T05:22:36.415Z,97114.84
2022-12-01T05:25:07.865Z,97105.56
2022-12-01T05:27:35.216Z,97122.38
2022-12-01T05:30:02.417Z,97123.94
2022-12-01T05:32:29.716Z,97120.22
2022-12-01T05:34:56.925Z,97123.53
2022-12-01T05:37:24.107Z,97115.72
2022-12-01T05:39:51.496Z,97124.78
2022-12-01T05:42:18.828Z,97127.09
2022-12-01T05:44:46.040Z,97127.13
2022-12-01T05:47:13.196Z,97122.84
2022-12-01T05:49:40.996Z,97125.09
2022-12-01T05:52:08.231Z,97126.22
2022-12-01T05:54:35.948Z,97130.56
2022-12-01T05:57:03.268Z,97129.97
2022-12-01T05:59:30.488Z,97127.50
2022-12-01T06:01:57.775Z,97130.88
2022-12-01T06:04:25.080Z,97129.50
2022-12-01T06:06:52.455Z,97123.31
2022-12-01T06:09:19.689Z,97131.88
2022-12-01T06:11:51.205Z,97132.06
2022-12-01T06:14:19.741Z,97130.91
2022-12-01T06:16:47.045Z,97135.56
2022-12-01T06:19:14.343Z,97137.19
2022-12-01T06:21:41.672Z,97136.94
2022-12-01T06:24:10.498Z,97136.22
2022-12-01T06:26:38.156Z,97135.09
2022-12-01T06:29:05.390Z,97145.38
2022-12-01T06:31:32.671Z,97140.75
2022-12-01T06:33:59.994Z,97138.91
2022-12-01T06:36:27.483Z,97148.66
2022-12-01T06:38:54.766Z,97144.03
2022-12-01T06:41:22.061Z,97147.59
2022-12-01T06:43:49.304Z,97145.41
2022-12-01T06:46:16.755Z,97144.28
2022-12-01T06:48:44.261Z,97146.00
2022-12-01T06:51:11.541Z,97151.75
2022-12-01T06:53:38.742Z,97159.75
2022-12-01T06:56:06.519Z,97164.91
2022-12-01T06:58:34.811Z,97161.75
2022-12-01T07:01:09.928Z,97163.31
2022-12-01T07:03:37.475Z,97160.03
2022-12-01T07:06:05.234Z,97160.44
2022-12-01T07:08:33.466Z,97156.59
2022-12-01T07:11:07.624Z,97157.38
2022-12-01T07:13:35.703Z,97162.56
2022-12-01T07:16:03.895Z,97163.94
2022-12-01T07:18:33.483Z,97169.97
2022-12-01T07:21:08.209Z,97167.31
2022-12-01T07:23:36.418Z,97164.13
2022-12-01T07:26:09.911Z,97168.41
2022-12-01T07:28:37.185Z,97171.97
2022-12-01T07:31:15.284Z,97168.69
2022-12-01T07:33:42.803Z,97172.31
2022-12-01T07:36:12.578Z,97170.50
2022-12-01T07:38:40.574Z,97169.84
2022-12-01T07:41:14.603Z,97165.81
2022-12-01T07:43:42.477Z,97178.66
2022-12-01T07:46:21.790Z,97168.13
2022-12-01T07:48:50.369Z,97172.78
2022-12-01T07:51:18.043Z,97172.69
2022-12-01T07:53:46.845Z,97170.22
2022-12-01T07:56:14.574Z,97172.69
2022-12-01T07:58:42.504Z,97171.34
2022-12-01T08:01:14.297Z,97164.56
2022-12-01T08:03:42.574Z,97169.56
2022-12-01T08:06:11.679Z,97166.88
2022-12-01T08:08:41.244Z,97167.97
2022-12-01T08:11:20.574Z,97170.31
2022-12-01T08:13:48.681Z,97174.22
2022-12-01T08:16:22.557Z,97166.94
2022-12-01T08:18:50.839Z,97166.94
2022-12-01T08:21:22.105Z,97169.28
2022-12-01T08:23:53.260Z,97168.00
2022-12-01T08:26:21.729Z,97175.59
2022-12-01T08:28:50.016Z,97174.31
2022-12-01T08:31:29.572Z,97169.22
2022-12-01T08:33:57.520Z,97174.94
2022-12-01T08:36:25.928Z,97173.44
2022-12-01T08:38:56.000Z,97178.53
2022-12-01T08:41:24.774Z,97187.09
2022-12-01T08:44:00.724Z,97187.06
2022-12-01T08:46:33.466Z,97189.19
2022-12-01T08:49:01.711Z,97190.50
2022-12-01T08:51:29.294Z,97201.94
2022-12-01T08:53:57.930Z,97196.38
2022-12-01T08:56:39.226Z,97197.44
2022-12-01T08:59:07.675Z,97195.16
2022-12-01T09:01:52.305Z,97198.34
2022-12-01T09:04:25.797Z,97204.56
2022-12-01T09:06:56.426Z,97203.66
2022-12-01T09:09:29.285Z,97205.31
2022-12-01T09:11:57.396Z,97201.28
2022-12-01T09:14:24.677Z,97201.22
2022-12-01T09:16:51.890Z,97197.97
2022-12-01T09:19:24.780Z,97190.09
2022-12-01T09:21:53.332Z,97196.22
2022-12-01T09:24:20.703Z,97197.88
2022-12-01T09:26:47.808Z,97204.09
2022-12-01T09:29:16.988Z,97200.78
2022-12-01T09:31:44.408Z,97196.66
2022-12-01T09:34:17.255Z,97204.28
2022-12-01T09:36:45.143Z,97203.63
2022-12-01T09:39:17.188Z,97206.72
2022-12-01T09:41:55.943Z,97199.19
2022-12-01T09:44:28.943Z,97196.56
2022-12-01T09:47:24.461Z,97203.44
2022-12-01T09:50:15.595Z,97203.03
2022-12-01T09:52:50.550Z,97201.28
2022-12-01T09:55:21.327Z,97203.09
2022-12-01T09:57:52.694Z,97199.69
2022-12-01T10:00:30.539Z,97194.59
2022-12-01T10:03:19.499Z,97193.69
2022-12-01T10:09:30.658Z,97193.50
2022-12-01T10:12:14.912Z,97195.72
2022-12-01T10:14:45.213Z,97177.66
2022-12-01T10:17:42.752Z,97187.75
2022-12-01T10:20:24.443Z,97176.88
2022-12-01T10:23:15.554Z,97173.41
2022-12-01T10:25:54.738Z,97175.53
2022-12-01T10:28:49.783Z,97172.50
2022-12-01T10:31:29.319Z,97165.91
2022-12-01T10:34:17.824Z,97173.06
2022-12-01T10:36:45.544Z,97167.69
2022-12-01T10:39:43.790Z,97162.78
2022-12-01T10:42:27.973Z,97162.09
2022-12-01T10:45:04.057Z,97160.44
2022-12-01T10:47:32.242Z,97152.19
2022-12-01T10:49:59.748Z,97146.09
2022-12-01T10:52:38.513Z,97140.97
2022-12-01T10:55:33.021Z,97135.50
2022-12-01T10:58:09.396Z,97126.00
2022-12-01T11:00:59.246Z,97129.75
2022-12-01T11:03:34.981Z,97133.03
2022-12-01T11:06:06.076Z,97129.47
2022-12-01T11:08:56.186Z,97122.59
2022-12-01T11:11:52.393Z,97129.41
2022-12-01T11:14:25.392Z,97129.94
2022-12-01T11:16:54.212Z,97119.03
2022-12-01T11:19:32.876Z,97124.59
2022-12-01T11:22:13.078Z,97123.13
2022-12-01T11:24:43.365Z,97124.78
2022-12-01T11:27:24.794Z,97128.72
2022-12-01T11:30:03.045Z,97123.88
2022-12-01T11:32:36.707Z,97136.00
2022-12-01T11:35:22.486Z,97113.06
2022-12-01T11:38:28.363Z,97110.81
2022-12-01T11:40:55.224Z,97120.00
2022-12-01T11:43:37.404Z,97108.50
2022-12-01T11:46:09.960Z,97105.13
2022-12-01T11:48:37.196Z,97097.75
2022-12-01T11:51:37.811Z,97107.34
2022-12-01T11:54:22.115Z,97106.44
2022-12-01T11:59:39.638Z,97117.47
2022-12-01T12:02:35.070Z,97112.56
2022-12-01T12:05:26.336Z,97111.94
2022-12-01T12:08:13.824Z,97107.25
2022-12-01T12:11:17.165Z,97122.31
2022-12-01T12:14:06.865Z,97105.13
2022-12-01T12:16:53.683Z,97110.25
2022-12-01T12:19:52.461Z,97117.53
2022-12-01T12:22:31.947Z,97120.13
2022-12-01T12:25:06.564Z,97112.13
2022-12-01T12:27:33.634Z,97115.38
2022-12-01T12:30:28.405Z,97106.19
2022-12-01T12:33:56.376Z,97114.00
2022-12-01T12:36:52.132Z,97096.13
2022-12-01T12:39:32.603Z,97117.47
2022-12-01T12:42:04.220Z,97094.69
2022-12-01T12:44:47.920Z,97112.34
2022-12-01T12:47:41.974Z,97107.97
2022-12-01T12:50:24.471Z,97107.47
2022-12-01T12:53:00.253Z,97101.75
2022-12-01T12:55:44.613Z,97102.75
2022-12-01T12:58:20.157Z,97104.84
2022-12-01T13:00:57.661Z,97110.06
2022-12-01T13:03:59.446Z,97101.19
2022-12-01T13:06:41.993Z,97104.81
2022-12-01T13:09:28.978Z,97099.53
2022-12-01T13:12:04.845Z,97109.63
2022-12-01T13:14:41.108Z,97105.13
2022-12-01T13:17:27.000Z,97104.59
2022-12-01T13:19:54.218Z,97113.50
2022-12-01T13:22:35.966Z,97107.56
2022-12-01T13:25:04.553Z,97104.22
2022-12-01T13:27:43.980Z,97117.75
2022-12-01T13:30:22.998Z,97122.94
2022-12-01T13:33:05.331Z,97116.63
2022-12-01T13:35:40.200Z,97116.03
2022-12-01T13:38:33.867Z,97106.88
2022-12-01T13:41:20.707Z,97099.66
2022-12-01T13:44:04.633Z,97099.44
2022-12-01T13:46:50.855Z,97108.50
2022-12-01T13:49:45.156Z,97096.94
2022-12-01T13:52:30.485Z,97099.75
2022-12-01T13:55:12.982Z,97099.75
2022-12-01T13:58:13.343Z,97106.88
2022-12-01T14:00:43.262Z,97108.34
2022-12-01T14:03:39.155Z,97108.09
2022-12-01T14:06:20.561Z,97112.94
2022-12-01T14:08:52.177Z,97110.63
2022-12-01T14:11:26.653Z,97111.25
2022-12-01T14:14:03.816Z,97106.47
2022-12-01T14:17:04.396Z,97113.47
2022-12-01T14:19:46.420Z,97114.56
2022-12-01T14:22:34.831Z,97115.81
2022-12-01T14:25:21.045Z,97106.19
2022-12-01T14:27:52.914Z,97112.75
2022-12-01T14:30:48.018Z,97116.81
2022-12-01T14:33:58.940Z,97118.63
2022-12-01T14:36:44.502Z,97120.00
2022-12-01T14:39:32.346Z,97114.19
2022-12-01T14:43:09.954Z,97109.84
2022-12-01T14:45:57.652Z,97118.00
2022-12-01T14:48:39.042Z,97115.41
2022-12-01T14:51:27.576Z,97117.47
2022-12-01T14:53:57.373Z,97115.41
2022-12-01T14:56:26.763Z,97123.25
2022-12-01T14:59:01.462Z,97130.47
2022-12-01T15:01:36.902Z,97133.50
2022-12-01T15:04:06.692Z,97119.88
2022-12-01T15:06:38.620Z,97125.66
2022-12-01T15:09:33.368Z,97132.84
2022-12-01T15:12:09.147Z,97130.00
2022-12-01T15:14:56.120Z,97133.63
2022-12-01T15:17:37.143Z,97136.66
2022-12-01T15:20:41.317Z,97138.34
2022-12-01T15:23:17.271Z,97142.31
2022-12-01T15:25:48.258Z,97146.25
2022-12-01T15:28:28.904Z,97151.22
2022-12-01T15:30:56.956Z,97154.13
2022-12-01T15:33:37.393Z,97164.16
2022-12-01T15:36:08.008Z,97163.97
2022-12-01T15:38:38.272Z,97171.19
2022-12-01T15:44:05.599Z,97174.44
2022-12-01T15:46:34.764Z,97177.19
2022-12-01T15:49:33.092Z,97176.22
2022-12-01T15:52:12.817Z,97179.66
2022-12-01T15:54:40.355Z,97180.94
2022-12-01T15:57:07.903Z,97181.81
2022-12-01T15:59:44.813Z,97183.63
2022-12-01T16:02:27.328Z,97185.78
2022-12-01T16:05:17.572Z,97185.44
2022-12-01T16:10:37.531Z,97183.97
2022-12-01T16:13:35.497Z,97180.41
2022-12-01T16:16:45.440Z,97184.69
2022-12-01T16:19:12.586Z,97186.53
2022-12-01T16:21:48.451Z,97187.06
2022-12-01T16:24:31.482Z,97185.53
2022-12-01T16:27:04.328Z,97176.94
2022-12-01T16:29:48.130Z,97193.03
2022-12-01T16:32:40.804Z,97191.72
2022-12-01T16:35:27.248Z,97192.56
2022-12-01T16:37:55.577Z,97198.66
2022-12-01T16:40:23.724Z,97190.19
2022-12-01T16:42:51.129Z,97193.03
2022-12-01T16:45:26.857Z,97204.31
2022-12-01T16:47:54.090Z,97204.66
2022-12-01T16:50:22.945Z,97221.19
2022-12-01T16:52:50.234Z,97226.88
2022-12-01T16:55:33.849Z,97227.91
2022-12-01T16:58:00.983Z,97219.19
2022-12-01T17:00:29.550Z,97225.63
2022-12-01T17:02:57.636Z,97227.44
2022-12-01T17:05:25.058Z,97229.75
2022-12-01T17:07:52.773Z,97228.50
2022-12-01T17:10:23.234Z,97224.78
2022-12-01T17:12:51.403Z,97236.81
2022-12-01T17:15:18.777Z,97233.09
2022-12-01T17:17:45.936Z,97233.97
2022-12-01T17:20:14.409Z,97239.28
2022-12-01T17:22:41.637Z,97238.06
2022-12-01T17:25:10.084Z,97239.31
2022-12-01T17:27:39.224Z,97236.81
2022-12-01T17:30:08.259Z,97239.19
2022-12-01T17:32:35.634Z,97238.63
2022-12-01T17:35:03.608Z,97242.97
2022-12-01T17:37:30.874Z,97238.56
2022-12-01T17:39:58.066Z,97239.50
2022-12-01T17:42:25.251Z,97244.88
2022-12-01T17:44:52.561Z,97253.34
2022-12-01T17:47:19.836Z,97252.09
2022-12-01T17:49:47.115Z,97253.56
2022-12-01T17:52:14.542Z,97253.13
2022-12-01T17:54:41.764Z,97254.84
2022-12-01T17:57:08.939Z,97254.53
2022-12-01T17:59:37.159Z,97252.91
2022-12-01T18:02:05.015Z,97268.81
2022-12-01T18:04:33.263Z,97266.13
2022-12-01T18:07:01.062Z,97270.09
2022-12-01T18:09:28.703Z,97274.88
2022-12-01T18:11:57.272Z,97276.50
2022-12-01T18:14:25.650Z,97274.09
2022-12-01T18:16:53.481Z,97279.88
2022-12-01T18:19:20.800Z,97284.28
2022-12-01T18:21:48.336Z,97278.16
2022-12-01T18:24:15.483Z,97277.28
2022-12-01T18:26:43.093Z,97283.69
2022-12-01T18:29:16.871Z,97294.63
2022-12-01T18:31:45.021Z,97288.13
2022-12-01T18:34:12.966Z,97286.38
2022-12-01T18:36:42.143Z,97294.50
2022-12-01T18:39:11.240Z,97283.00
2022-12-01T18:41:39.727Z,97289.22
2022-12-01T18:44:08.946Z,97290.38
2022-12-01T18:46:36.479Z,97290.72
2022-12-01T18:49:05.205Z,97289.25
2022-12-01T18:51:36.220Z,97291.53
2022-12-01T18:54:07.077Z,97292.63
2022-12-01T18:56:35.875Z,97294.31
2022-12-01T18:59:07.161Z,97297.38
2022-12-01T19:01:41.322Z,97296.41
2022-12-01T19:04:10.676Z,97297.31
2022-12-01T19:06:58.149Z,97290.19
2022-12-01T19:09:25.381Z,97307.84
2022-12-01T19:11:59.838Z,97312.16
2022-12-01T19:14:29.137Z,97309.09
2022-12-01T19:16:59.555Z,97308.53
2022-12-01T19:19:26.896Z,97310.47
2022-12-01T19:21:54.366Z,97321.38
2022-12-01T19:24:21.724Z,97323.91
2022-12-01T19:26:49.521Z,97322.16
2022-12-01T19:29:16.827Z,97327.84
2022-12-01T19:31:44.407Z,97319.19
2022-12-01T19:34:11.564Z,97318.03
2022-12-01T19:36:38.720Z,97328.22
2022-12-01T19:39:07.684Z,97334.69
2022-12-01T19:41:35.889Z,97336.25
2022-12-01T19:44:03.169Z,97339.25
2022-12-01T19:46:30.454Z,97345.47
2022-12-01T19:49:00.845Z,97341.63
2022-12-01T19:51:37.380Z,97348.53
2022-12-01T19:54:19.799Z,97346.84
2022-12-01T19:56:47.771Z,97355.88
2022-12-01T19:59:15.578Z,97355.34
2022-12-01T20:01:44.160Z,97349.31
2022-12-01T20:04:11.803Z,97342.72
2022-12-01T20:06:39.339Z,97350.00
2022-12-01T20:09:08.308Z,97344.94
2022-12-01T20:11:37.033Z,97346.34
2022-12-01T20:14:07.749Z,97342.25
2022-12-01T20:16:35.703Z,97347.25
2022-12-01T20:19:05.721Z,97349.44
2022-12-01T20:21:39.573Z,97357.53
2022-12-01T20:24:10.665Z,97359.47
2022-12-01T20:26:46.154Z,97355.72
2022-12-01T20:29:23.514Z,97361.72
2022-12-01T20:31:53.072Z,97365.94
2022-12-01T20:34:29.539Z,97365.78
2022-12-01T20:36:57.850Z,97359.94
2022-12-01T20:39:25.980Z,97358.84
2022-12-01T20:41:53.528Z,97357.25
2022-12-01T20:44:21.905Z,97350.97
2022-12-01T20:46:49.430Z,97361.50
2022-12-01T20:49:19.166Z,97362.13
2022-12-01T20:51:47.276Z,97360.91
2022-12-01T20:54:27.967Z,97360.94
2022-12-01T20:56:56.987Z,97366.50
2022-12-01T20:59:24.703Z,97366.69
2022-12-01T21:01:51.884Z,97363.38
2022-12-01T21:04:19.307Z,97374.09
2022-12-01T21:06:47.421Z,97372.31
2022-12-01T21:09:15.094Z,97368.44
2022-12-01T21:12:06.106Z,97377.56
2022-12-01T21:14:38.249Z,97380.91
2022-12-01T21:17:30.336Z,97382.91
2022-12-01T21:20:32.252Z,97379.25
2022-12-01T21:23:18.631Z,97384.44
2022-12-01T21:25:48.056Z,97381.03
2022-12-01T21:28:22.497Z,97387.00
2022-12-01T21:31:03.149Z,97380.53
2022-12-01T21:33:36.268Z,97387.50
2022-12-01T21:36:20.377Z,97388.59
2022-12-01T21:38:54.066Z,97398.00
2022-12-01T21:41:28.401Z,97391.50
2022-12-01T21:44:08.053Z,97397.28
2022-12-01T21:46:36.042Z,97403.19
2022-12-01T21:49:11.406Z,97405.38
2022-12-01T21:51:38.890Z,97398.38
2022-12-01T21:54:14.344Z,97394.53
2022-12-01T21:56:42.649Z,97407.09
2022-12-01T21:59:23.580Z,97405.16
2022-12-01T22:01:57.048Z,97403.63
2022-12-01T22:04:30.672Z,97408.81
2022-12-01T22:06:58.671Z,97412.94
2022-12-01T22:09:33.462Z,97408.63
2022-12-01T22:12:21.712Z,97424.09
2022-12-01T22:14:49.902Z,97409.16
2022-12-01T22:17:21.532Z,97412.66
2022-12-01T22:20:02.555Z,97414.91
2022-12-01T22:22:32.785Z,97411.91
2022-12-01T22:25:26.679Z,97412.81
2022-12-01T22:27:54.696Z,97413.63
2022-12-01T22:30:24.485Z,97412.59
2022-12-01T22:33:03.846Z,97413.69
2022-12-01T22:36:00.844Z,97411.09
2022-12-01T22:38:38.256Z,97425.19
2022-12-01T22:41:14.981Z,97423.81
2022-12-01T22:43:51.539Z,97418.00
2022-12-01T22:46:31.588Z,97414.78
2022-12-01T22:49:19.575Z,97430.50
2022-12-01T22:52:12.842Z,97427.81
2022-12-01T22:54:49.390Z,97424.63
2022-12-01T22:57:23.208Z,97425.28
2022-12-01T22:59:50.755Z,97429.06
2022-12-01T23:02:52.332Z,97423.97
2022-12-01T23:05:30.103Z,97431.97
2022-12-01T23:07:57.917Z,97420.31
2022-12-01T23:10:34.033Z,97420.22
2022-12-01T23:13:17.496Z,97422.31
2022-12-01T23:15:54.321Z,97426.09
2022-12-01T23:18:34.309Z,97421.41
2022-12-01T23:21:02.430Z,97424.19
2022-12-01T23:23:36.787Z,97419.41
2022-12-01T23:26:08.370Z,97420.59
2022-12-01T23:28:39.280Z,97424.19
2022-12-01T23:31:06.762Z,97421.78
2022-12-01T23:33:35.058Z,97420.34
2022-12-01T23:36:16.537Z,97426.75
2022-12-01T23:38:47.599Z,97413.97
2022-12-01T23:41:25.243Z,97417.19
2022-12-01T23:43:56.002Z,97414.72
2022-12-01T23:46:28.233Z,97425.56
2022-12-01T23:49:12.844Z,97423.47
2022-12-01T23:51:48.032Z,97432.50
2022-12-01T23:54:30.951Z,97443.50
2022-12-01T23:57:23.430Z,97437.47
